Terminal Aerodrome Forecast
Issued by NWS

Home | Current Version | Previous Version | Text Only | Print | Product List | Glossary On
Versions: 1 2 3 4 5 6 7 8 9 10 11 12 13 14 15 16 17 18 19 20 21 22 23 24
000
FTUS43 KDLH 230539
TAFHIB
TAF
KHIB 230539Z 2306/2406 15004KT P6SM SKC WS020/20035KT
     FM231300 17007KT P6SM SCT250
     FM231700 18009G16KT P6SM SCT180
     FM240100 17008KT P6SM SCT030=

USA.gov is the U.S. government's official web portal to all federal, state and local government web resources and services.